createdAt,value
2019-05-20T00:00:04.004Z,87.30
2019-05-20T00:01:03.956Z,87.92
2019-05-20T00:02:03.962Z,87.92
2019-05-20T00:03:03.935Z,87.51
2019-05-20T00:04:03.922Z,87.61
2019-05-20T00:05:03.919Z,87.51
2019-05-20T00:06:03.931Z,87.45
2019-05-20T00:07:03.904Z,87.92
2019-05-20T00:08:03.878Z,87.61
2019-05-20T00:09:03.873Z,87.75
2019-05-20T00:10:03.856Z,87.45
2019-05-20T00:11:03.881Z,87.65
2019-05-20T00:12:03.843Z,87.65
2019-05-20T00:13:03.827Z,87.96
2019-05-20T00:14:03.812Z,89.07
2019-05-20T00:15:03.812Z,89.01
2019-05-20T00:16:03.823Z,88.87
2019-05-20T00:17:03.790Z,88.77
2019-05-20T00:18:03.774Z,88.67
2019-05-20T00:19:03.754Z,88.98
2019-05-20T00:20:03.743Z,89.07
2019-05-20T00:21:03.796Z,88.67
2019-05-20T00:22:03.732Z,88.87
2019-05-20T00:23:03.718Z,88.77
2019-05-20T00:24:03.697Z,87.96
2019-05-20T00:25:03.686Z,87.14
2019-05-20T00:26:03.674Z,86.37
2019-05-20T00:27:03.677Z,86.88
2019-05-20T00:28:03.650Z,88.75
2019-05-20T00:29:03.654Z,88.81
2019-05-20T00:30:03.626Z,89.06
2019-05-20T00:31:03.619Z,88.85
2019-05-20T00:32:03.625Z,89.57
2019-05-20T00:33:03.595Z,89.71
2019-05-20T00:34:03.597Z,89.51
2019-05-20T00:35:03.572Z,90.79
2019-05-20T00:36:03.561Z,90.53
2019-05-20T00:37:03.596Z,91.14
2019-05-20T00:38:03.544Z,91.24
2019-05-20T00:39:03.524Z,91.81
2019-05-20T00:40:03.526Z,91.30
2019-05-20T00:41:03.515Z,90.89
2019-05-20T00:42:03.500Z,90.89
2019-05-20T00:43:03.496Z,91.09
2019-05-20T00:44:03.469Z,91.50
2019-05-20T00:45:03.459Z,91.30
2019-05-20T00:46:03.472Z,90.79
2019-05-20T00:47:03.442Z,91.46
2019-05-20T00:48:03.442Z,91.05
2019-05-20T00:49:03.412Z,90.85
2019-05-20T00:50:03.401Z,90.59
2019-05-20T00:51:03.388Z,91.20
2019-05-20T00:52:03.430Z,91.50
2019-05-20T00:53:03.383Z,90.48
2019-05-20T00:54:03.360Z,91.09
2019-05-20T00:55:03.347Z,91.35
2019-05-20T00:56:03.332Z,91.35
2019-05-20T00:57:03.321Z,92.26
2019-05-20T00:58:03.350Z,92.16
2019-05-20T00:59:03.299Z,91.65
2019-05-20T01:00:03.479Z,91.96
2019-05-20T01:01:03.283Z,91.85
2019-05-20T01:02:03.273Z,92.30
2019-05-20T01:03:03.253Z,92.26
2019-05-20T01:04:03.277Z,92.05
2019-05-20T01:05:03.230Z,92.20
2019-05-20T01:06:03.227Z,92.20
2019-05-20T01:07:03.215Z,92.05
2019-05-20T01:08:03.206Z,92.20
2019-05-20T01:09:03.186Z,92.50
2019-05-20T01:10:03.194Z,92.20
2019-05-20T01:11:03.175Z,92.76
2019-05-20T01:12:03.154Z,93.26
2019-05-20T01:13:03.141Z,92.96
2019-05-20T01:14:03.129Z,92.96
2019-05-20T01:15:03.144Z,93.16
2019-05-20T01:16:03.122Z,92.65
2019-05-20T01:17:03.100Z,92.86
2019-05-20T01:18:03.081Z,93.26
2019-05-20T01:19:03.072Z,93.21
2019-05-20T01:20:03.085Z,92.86
2019-05-20T01:21:03.049Z,93.92
2019-05-20T01:22:03.047Z,93.71
2019-05-20T01:23:03.028Z,93.71
2019-05-20T01:24:03.027Z,93.51
2019-05-20T01:25:03.001Z,93.51
2019-05-20T01:26:03.008Z,94.37
2019-05-20T01:27:02.982Z,94.07
2019-05-20T01:28:03.002Z,94.68
2019-05-20T01:29:02.957Z,95.39
2019-05-20T01:30:02.952Z,94.78
2019-05-20T01:31:02.957Z,95.19
2019-05-20T01:32:02.930Z,94.62
2019-05-20T01:33:13.259Z,96.15
2019-05-20T01:34:03.924Z,96.56
2019-05-20T01:35:02.891Z,96.36
2019-05-20T01:36:02.878Z,96.77
2019-05-20T01:37:02.886Z,96.15
2019-05-20T01:38:02.861Z,96.36
2019-05-20T01:39:02.847Z,96.15
2019-05-20T01:40:02.843Z,96.77
2019-05-20T01:41:02.822Z,96.36
2019-05-20T01:42:02.838Z,96.20
2019-05-20T01:43:02.809Z,96.20
2019-05-20T01:44:02.790Z,96.71
2019-05-20T01:45:02.785Z,97.38
2019-05-20T01:46:02.785Z,97.89
2019-05-20T01:47:02.768Z,97.79
2019-05-20T01:48:02.782Z,98.30
2019-05-20T01:49:02.733Z,98.50
2019-05-20T01:50:02.727Z,98.65
2019-05-20T01:51:02.731Z,97.63
2019-05-20T01:52:02.708Z,96.14
2019-05-20T01:53:02.688Z,96.34
2019-05-20T01:54:02.694Z,96.29
2019-05-20T01:55:02.677Z,96.59
2019-05-20T01:56:02.711Z,97.11
2019-05-20T01:57:02.668Z,97.72
2019-05-20T01:58:02.664Z,97.92
2019-05-20T01:59:02.646Z,98.65
2019-05-20T02:00:02.634Z,99.15
2019-05-20T02:01:02.608Z,99.36
2019-05-20T02:02:02.647Z,99.93
2019-05-20T02:03:02.584Z,99.52
2019-05-20T02:04:02.596Z,99.72
2019-05-20T02:05:02.561Z,99.77
2019-05-20T02:06:02.589Z,99.41
2019-05-20T02:07:02.568Z,99.31
2019-05-20T02:08:02.524Z,99.21
2019-05-20T02:09:02.518Z,99.31
2019-05-20T02:10:02.519Z,99.93
2019-05-20T02:11:02.494Z,99.93
2019-05-20T02:12:02.486Z,99.99
2019-05-20T02:13:02.471Z,99.99
2019-05-20T02:14:02.456Z,99.99
2019-05-20T02:15:02.442Z,99.99
2019-05-20T02:16:02.466Z,99.99
2019-05-20T02:17:02.871Z,99.63
2019-05-20T02:18:02.411Z,99.99
2019-05-20T02:19:02.430Z,99.99
2019-05-20T02:20:02.452Z,99.84
2019-05-20T02:21:02.411Z,99.84
2019-05-20T02:22:02.374Z,99.11
2019-05-20T02:23:02.357Z,99.02
2019-05-20T02:24:02.363Z,98.71
2019-05-20T02:25:02.335Z,98.71
2019-05-20T02:26:02.341Z,99.43
2019-05-20T02:27:02.304Z,99.93
2019-05-20T02:28:02.296Z,99.99
2019-05-20T02:29:02.289Z,99.93
2019-05-20T02:30:02.309Z,99.99
2019-05-20T02:31:02.305Z,99.43
2019-05-20T02:32:02.254Z,99.22
2019-05-20T02:33:02.244Z,99.84
2019-05-20T02:34:02.232Z,99.43
2019-05-20T02:35:02.223Z,99.84
2019-05-20T02:36:02.229Z,99.32
2019-05-20T02:37:02.222Z,99.73
2019-05-20T02:38:02.185Z,99.11
2019-05-20T02:39:02.184Z,99.99
2019-05-20T02:40:02.169Z,99.99
2019-05-20T02:41:02.163Z,99.99
2019-05-20T02:42:02.180Z,99.99
2019-05-20T02:43:02.127Z,99.99
2019-05-20T02:44:02.121Z,99.99
2019-05-20T02:45:02.113Z,99.99
2019-05-20T02:46:02.099Z,99.99
2019-05-20T02:47:02.110Z,99.99
2019-05-20T02:48:02.095Z,99.99
2019-05-20T02:49:02.065Z,99.99
2019-05-20T02:50:02.062Z,99.99
2019-05-20T02:51:02.041Z,99.99
2019-05-20T02:52:02.028Z,99.99
2019-05-20T02:53:02.037Z,99.99
2019-05-20T02:54:02.083Z,99.99
2019-05-20T02:55:02.028Z,99.99
2019-05-20T02:56:01.984Z,99.99
2019-05-20T02:57:01.987Z,99.38
2019-05-20T02:58:01.976Z,99.02
2019-05-20T02:59:01.965Z,99.63
2019-05-20T03:00:01.966Z,99.99
2019-05-20T03:01:02.028Z,99.84
2019-05-20T03:02:01.921Z,99.99
2019-05-20T03:03:01.913Z,99.99
2019-05-20T03:04:11.803Z,99.99
2019-05-20T03:05:02.892Z,99.99
2019-05-20T03:06:01.876Z,99.99
2019-05-20T03:07:01.920Z,99.99
2019-05-20T03:08:01.863Z,99.99
2019-05-20T03:09:01.842Z,99.99
2019-05-20T03:10:01.829Z,99.99
2019-05-20T03:11:01.871Z,99.99
2019-05-20T03:12:01.810Z,99.99
2019-05-20T03:13:01.811Z,99.99
2019-05-20T03:14:01.783Z,99.99
2019-05-20T03:15:01.818Z,99.99
2019-05-20T03:16:01.761Z,99.99
2019-05-20T03:17:01.749Z,99.99
2019-05-20T03:18:01.738Z,99.99
2019-05-20T03:19:01.729Z,99.99
2019-05-20T03:20:01.757Z,99.99
2019-05-20T03:21:01.737Z,99.99
2019-05-20T03:22:01.696Z,99.99
2019-05-20T03:23:01.685Z,99.99
2019-05-20T03:24:01.679Z,99.99
2019-05-20T03:25:01.701Z,99.99
2019-05-20T03:26:01.662Z,99.99
2019-05-20T03:27:01.638Z,99.99
2019-05-20T03:28:01.639Z,99.99
2019-05-20T03:29:01.618Z,99.99
2019-05-20T03:30:01.597Z,99.99
2019-05-20T03:31:01.719Z,99.99
2019-05-20T03:32:01.647Z,99.99
2019-05-20T03:33:01.610Z,99.99
2019-05-20T03:34:01.600Z,99.99
2019-05-20T03:35:02.045Z,99.99
2019-05-20T03:36:01.534Z,99.99
2019-05-20T03:37:01.538Z,99.99
2019-05-20T03:38:01.557Z,99.99
2019-05-20T03:39:01.497Z,99.99
2019-05-20T03:40:01.497Z,99.99
2019-05-20T03:41:01.475Z,99.99
2019-05-20T03:42:01.536Z,99.99
2019-05-20T03:43:01.452Z,99.99
2019-05-20T03:44:01.444Z,99.99
2019-05-20T03:45:01.430Z,99.99
2019-05-20T03:46:01.462Z,99.99
2019-05-20T03:47:01.438Z,99.99
2019-05-20T03:48:01.416Z,99.99
2019-05-20T03:49:01.393Z,99.99
2019-05-20T03:50:01.398Z,99.99
2019-05-20T03:51:01.370Z,99.99
2019-05-20T03:52:01.384Z,99.99
2019-05-20T03:53:01.342Z,99.99
2019-05-20T03:54:01.338Z,99.99
2019-05-20T03:55:01.330Z,99.99
2019-05-20T03:56:01.307Z,99.99
2019-05-20T03:57:01.295Z,99.99
2019-05-20T03:58:01.296Z,99.99
2019-05-20T03:59:01.285Z,99.99
2019-05-20T04:00:01.271Z,99.99
2019-05-20T04:01:01.248Z,99.99
2019-05-20T04:02:01.303Z,99.99
2019-05-20T04:03:01.241Z,99.99
2019-05-20T04:04:01.221Z,99.99
2019-05-20T04:05:03.213Z,99.99
2019-05-20T04:06:01.196Z,99.99
2019-05-20T04:07:01.178Z,99.99
2019-05-20T04:08:01.190Z,99.99
2019-05-20T04:09:01.177Z,99.99
2019-05-20T04:10:01.179Z,99.99
2019-05-20T04:11:01.149Z,99.99
2019-05-20T04:12:01.140Z,99.99
2019-05-20T04:13:01.128Z,99.99
2019-05-20T04:14:01.186Z,99.99
2019-05-20T04:15:01.120Z,99.99
2019-05-20T04:16:01.078Z,99.99
2019-05-20T04:17:01.073Z,99.99
2019-05-20T04:18:01.070Z,99.99
2019-05-20T04:19:01.116Z,99.99
2019-05-20T04:20:01.041Z,99.99
2019-05-20T04:21:01.029Z,99.67
2019-05-20T04:22:01.041Z,99.67
2019-05-20T04:23:01.003Z,99.88
2019-05-20T04:24:01.972Z,99.77
2019-05-20T04:25:01.019Z,99.88
2019-05-20T04:26:00.965Z,99.06
2019-05-20T04:27:00.963Z,99.06
2019-05-20T04:28:00.945Z,99.77
2019-05-20T04:29:00.949Z,99.16
2019-05-20T04:30:00.994Z,99.16
2019-05-20T04:31:00.946Z,99.63
2019-05-20T04:32:00.900Z,98.61
2019-05-20T04:33:00.911Z,98.50
2019-05-20T04:34:00.887Z,98.71
2019-05-20T04:35:19.877Z,98.91
2019-05-20T04:36:01.879Z,99.22
2019-05-20T04:37:00.839Z,98.91
2019-05-20T04:38:00.868Z,98.71
2019-05-20T04:39:00.830Z,99.22
2019-05-20T04:40:00.817Z,98.61
2019-05-20T04:41:00.796Z,98.50
2019-05-20T04:42:00.868Z,98.56
2019-05-20T04:43:00.795Z,98.36
2019-05-20T04:44:00.781Z,98.26
2019-05-20T04:45:00.761Z,98.46
2019-05-20T04:46:00.807Z,98.05
2019-05-20T04:47:00.732Z,97.75
2019-05-20T04:48:00.765Z,97.75
2019-05-20T04:49:00.717Z,97.85
2019-05-20T04:50:00.708Z,97.55
2019-05-20T04:51:00.686Z,98.05
2019-05-20T04:52:00.692Z,97.96
2019-05-20T04:53:00.666Z,97.96
2019-05-20T04:54:00.652Z,97.96
2019-05-20T04:55:00.676Z,98.26
2019-05-20T04:56:00.632Z,96.99
2019-05-20T04:57:00.641Z,96.99
2019-05-20T04:58:00.602Z,96.89
2019-05-20T04:59:00.591Z,96.64
2019-05-20T05:00:00.586Z,95.83
2019-05-20T05:01:00.574Z,95.48
2019-05-20T05:02:00.561Z,95.18
2019-05-20T05:03:00.588Z,94.32
2019-05-20T05:04:00.544Z,93.46
2019-05-20T05:05:00.528Z,92.61
2019-05-20T05:06:00.520Z,92.00
2019-05-20T05:07:00.505Z,91.30
2019-05-20T05:08:00.490Z,91.70
2019-05-20T05:09:00.501Z,91.09
2019-05-20T05:10:00.469Z,90.75
2019-05-20T05:11:00.512Z,90.79
2019-05-20T05:12:00.500Z,91.66
2019-05-20T05:13:00.434Z,90.14
2019-05-20T05:14:00.436Z,89.28
2019-05-20T05:15:00.428Z,88.74
2019-05-20T05:16:00.398Z,88.49
2019-05-20T05:17:00.395Z,87.24
2019-05-20T05:18:00.398Z,87.08
2019-05-20T05:19:00.378Z,86.98
2019-05-20T05:20:00.373Z,87.24
2019-05-20T05:21:00.348Z,86.43
2019-05-20T05:22:00.331Z,87.28
2019-05-20T05:23:00.358Z,89.18
2019-05-20T05:24:00.347Z,90.14
2019-05-20T05:25:00.303Z,90.44
2019-05-20T05:26:00.285Z,90.64
2019-05-20T05:27:00.273Z,90.64
2019-05-20T05:28:00.272Z,90.09
2019-05-20T05:29:00.279Z,90.64
2019-05-20T05:30:00.249Z,90.09
2019-05-20T05:31:00.228Z,89.34
2019-05-20T05:32:00.224Z,87.84
2019-05-20T05:33:00.213Z,87.19
2019-05-20T05:34:00.239Z,85.64
2019-05-20T05:35:00.317Z,85.88
2019-05-20T05:36:00.184Z,85.99
2019-05-20T05:37:00.160Z,86.53
2019-05-20T05:38:00.251Z,86.19
2019-05-20T05:39:00.138Z,86.87
2019-05-20T05:40:00.160Z,87.24
2019-05-20T05:41:00.146Z,86.63
2019-05-20T05:42:00.118Z,86.08
2019-05-20T05:43:00.097Z,84.89
2019-05-20T05:44:00.103Z,82.53
2019-05-20T05:45:00.105Z,84.57
2019-05-20T05:46:00.082Z,85.72
2019-05-20T05:47:00.081Z,86.29
2019-05-20T05:48:00.078Z,85.64
2019-05-20T05:49:00.029Z,85.58
2019-05-20T05:50:00.024Z,86.39
2019-05-20T05:51:00.024Z,86.04
2019-05-20T05:52:00.003Z,84.59
2019-05-20T05:53:00.030Z,84.12
2019-05-20T05:53:59.998Z,85.17
2019-05-20T05:54:59.961Z,85.78
2019-05-20T05:55:59.961Z,86.29
2019-05-20T05:56:59.954Z,85.88
2019-05-20T05:57:59.935Z,85.08
2019-05-20T05:58:59.968Z,85.08
2019-05-20T05:59:59.904Z,84.33
2019-05-20T06:00:59.893Z,84.73
2019-05-20T06:01:59.889Z,83.92
2019-05-20T06:02:59.892Z,85.68
2019-05-20T06:03:59.876Z,84.43
2019-05-20T06:04:59.873Z,84.93
2019-05-20T06:06:11.354Z,85.64
2019-05-20T06:07:00.830Z,84.83
2019-05-20T06:07:59.818Z,85.10
2019-05-20T06:08:59.810Z,83.98
2019-05-20T06:09:59.852Z,83.58
2019-05-20T06:10:59.779Z,82.43
2019-05-20T06:11:59.777Z,82.09
2019-05-20T06:12:59.763Z,81.15
2019-05-20T06:13:59.747Z,80.36
2019-05-20T06:14:59.744Z,80.06
2019-05-20T06:15:59.792Z,80.16
2019-05-20T06:16:59.775Z,79.11
2019-05-20T06:17:59.704Z,78.71
2019-05-20T06:18:59.690Z,78.71
2019-05-20T06:19:59.682Z,80.30
2019-05-20T06:20:59.670Z,81.04
2019-05-20T06:21:59.695Z,82.05
2019-05-20T06:22:59.645Z,82.84
2019-05-20T06:23:59.659Z,82.29
2019-05-20T06:24:59.633Z,81.61
2019-05-20T06:25:59.617Z,80.22
2019-05-20T06:26:59.646Z,78.71
2019-05-20T06:27:59.621Z,77.33
2019-05-20T06:29:02.830Z,76.93
2019-05-20T06:29:59.634Z,76.83
2019-05-20T06:30:59.562Z,76.23
2019-05-20T06:31:59.552Z,75.99
2019-05-20T06:32:59.555Z,76.83
2019-05-20T06:33:59.538Z,78.51
2019-05-20T06:34:59.547Z,79.11
2019-05-20T06:35:59.505Z,78.91
2019-05-20T06:36:59.500Z,80.87
2019-05-20T06:37:59.490Z,80.60
2019-05-20T06:38:59.474Z,82.25
2019-05-20T06:39:59.458Z,81.01
2019-05-20T06:40:59.449Z,80.19
2019-05-20T06:41:59.433Z,77.06
2019-05-20T06:42:59.441Z,73.94
2019-05-20T06:43:59.412Z,73.80
2019-05-20T06:44:59.415Z,71.63
2019-05-20T06:45:59.387Z,70.19
2019-05-20T06:46:59.426Z,70.06
2019-05-20T06:47:59.393Z,68.02
2019-05-20T06:48:59.357Z,67.69
2019-05-20T06:49:59.403Z,68.02
2019-05-20T06:50:59.356Z,68.52
2019-05-20T06:51:59.323Z,68.29
2019-05-20T06:52:59.366Z,66.63
2019-05-20T06:53:59.318Z,65.17
2019-05-20T06:54:59.288Z,63.78
2019-05-20T06:55:59.302Z,61.66
2019-05-20T06:56:59.316Z,61.16
2019-05-20T06:57:59.260Z,64.17
2019-05-20T06:58:59.258Z,65.50
2019-05-20T06:59:59.249Z,64.07
2019-05-20T07:00:59.227Z,65.03
2019-05-20T07:01:59.279Z,66.16
2019-05-20T07:02:59.221Z,66.33
2019-05-20T07:03:59.226Z,65.07
2019-05-20T07:04:59.185Z,63.31
2019-05-20T07:05:59.181Z,63.08
2019-05-20T07:06:59.155Z,62.55
2019-05-20T07:08:01.277Z,61.13
2019-05-20T07:08:59.133Z,60.90
2019-05-20T07:09:59.123Z,60.11
2019-05-20T07:10:59.133Z,61.09
2019-05-20T07:11:59.099Z,62.29
2019-05-20T07:12:59.093Z,60.43
2019-05-20T07:13:59.100Z,59.38
2019-05-20T07:14:59.065Z,59.45
2019-05-20T07:15:59.083Z,59.35
2019-05-20T07:16:59.047Z,57.86
2019-05-20T07:17:59.062Z,59.15
2019-05-20T07:18:59.029Z,59.42
2019-05-20T07:19:59.019Z,58.73
2019-05-20T07:20:58.999Z,59.31
2019-05-20T07:21:58.996Z,59.23
2019-05-20T07:22:59.032Z,59.18
2019-05-20T07:23:58.970Z,58.78
2019-05-20T07:24:58.967Z,59.91
2019-05-20T07:25:58.946Z,60.30
2019-05-20T07:26:58.951Z,59.48
2019-05-20T07:27:58.938Z,58.58
2019-05-20T07:28:58.965Z,59.08
2019-05-20T07:29:58.912Z,60.21
2019-05-20T07:30:59.013Z,61.17
2019-05-20T07:31:58.888Z,58.62
2019-05-20T07:32:58.885Z,57.86
2019-05-20T07:33:58.880Z,58.45
2019-05-20T07:34:58.858Z,58.33
2019-05-20T07:35:58.848Z,57.38
2019-05-20T07:37:03.381Z,56.98
2019-05-20T07:37:59.851Z,56.68
2019-05-20T07:38:58.861Z,56.85
2019-05-20T07:39:58.802Z,56.09
2019-05-20T07:40:58.783Z,56.49
2019-05-20T07:41:58.797Z,55.94
2019-05-20T07:42:58.769Z,54.62
2019-05-20T07:43:58.778Z,55.51
2019-05-20T07:44:58.751Z,53.50
2019-05-20T07:45:58.733Z,53.70
2019-05-20T07:46:58.782Z,54.30
2019-05-20T07:47:58.723Z,54.72
2019-05-20T07:48:58.773Z,54.42
2019-05-20T07:49:58.743Z,55.78
2019-05-20T07:50:58.686Z,53.97
2019-05-20T07:51:58.685Z,54.96
2019-05-20T07:53:00.523Z,53.97
2019-05-20T07:53:58.661Z,54.17
2019-05-20T07:54:58.654Z,53.43
2019-05-20T07:55:58.666Z,55.24
2019-05-20T07:56:58.624Z,55.64
2019-05-20T07:57:58.618Z,55.21
2019-05-20T07:58:58.593Z,54.49
2019-05-20T07:59:58.583Z,54.79
2019-05-20T08:00:58.571Z,55.11
2019-05-20T08:01:58.602Z,55.91
2019-05-20T08:02:58.572Z,55.81
2019-05-20T08:03:58.539Z,55.32
2019-05-20T08:04:58.534Z,56.63
2019-05-20T08:05:58.526Z,55.99
2019-05-20T08:06:58.511Z,57.14
2019-05-20T08:07:58.537Z,58.81
2019-05-20T08:08:58.487Z,60.30
2019-05-20T08:09:58.484Z,60.40
2019-05-20T08:10:58.462Z,62.59
2019-05-20T08:11:58.492Z,64.17
2019-05-20T08:12:58.439Z,65.23
2019-05-20T08:13:58.435Z,66.89
2019-05-20T08:14:58.427Z,66.06
2019-05-20T08:15:58.420Z,64.67
2019-05-20T08:16:58.399Z,62.95
2019-05-20T08:17:58.401Z,61.10
2019-05-20T08:18:58.384Z,59.45
2019-05-20T08:19:58.402Z,59.42
2019-05-20T08:20:58.359Z,58.83
2019-05-20T08:21:58.367Z,59.08
2019-05-20T08:22:58.344Z,59.88
2019-05-20T08:23:58.327Z,60.21
2019-05-20T08:24:58.320Z,59.15
2019-05-20T08:25:58.334Z,58.23
2019-05-20T08:26:58.299Z,57.68
2019-05-20T08:27:58.292Z,56.46
2019-05-20T08:28:58.302Z,58.20
2019-05-20T08:29:58.279Z,62.98
2019-05-20T08:30:58.249Z,62.59
2019-05-20T08:31:58.259Z,63.14
2019-05-20T08:32:58.231Z,64.58
2019-05-20T08:33:58.282Z,61.30
2019-05-20T08:34:58.247Z,60.74
2019-05-20T08:35:58.204Z,59.52
2019-05-20T08:36:58.205Z,58.70
2019-05-20T08:37:58.183Z,57.81
2019-05-20T08:38:58.167Z,61.13
2019-05-20T08:39:58.194Z,59.85
2019-05-20T08:40:58.185Z,59.52
2019-05-20T08:41:58.144Z,58.20
2019-05-20T08:42:58.125Z,57.75
2019-05-20T08:43:58.132Z,55.21
2019-05-20T08:44:58.106Z,55.44
2019-05-20T08:45:58.177Z,56.78
2019-05-20T08:46:58.109Z,59.72
2019-05-20T08:47:58.078Z,58.17
2019-05-20T08:48:58.062Z,56.95
2019-05-20T08:49:58.101Z,57.00
2019-05-20T08:50:58.069Z,56.73
2019-05-20T08:51:58.037Z,55.49
2019-05-20T08:52:58.036Z,55.26
2019-05-20T08:53:58.010Z,55.09
2019-05-20T08:54:58.005Z,57.06
2019-05-20T08:55:58.017Z,57.03
2019-05-20T08:56:58.106Z,58.73
2019-05-20T08:57:58.041Z,60.35
2019-05-20T08:58:57.978Z,62.42
2019-05-20T08:59:57.965Z,63.08
2019-05-20T09:00:57.941Z,63.48
2019-05-20T09:01:58.129Z,63.05
2019-05-20T09:02:57.973Z,61.23
2019-05-20T09:03:57.910Z,61.60
2019-05-20T09:04:58.041Z,61.66
2019-05-20T09:05:57.940Z,63.71
2019-05-20T09:06:57.876Z,64.81
2019-05-20T09:08:02.812Z,65.34
2019-05-20T09:08:58.908Z,64.67
2019-05-20T09:09:57.861Z,63.48
2019-05-20T09:10:57.872Z,63.65
2019-05-20T09:11:57.827Z,63.68
2019-05-20T09:12:57.820Z,63.02
2019-05-20T09:13:57.811Z,63.39
2019-05-20T09:14:57.798Z,62.34
2019-05-20T09:15:57.792Z,60.74
2019-05-20T09:16:57.826Z,61.40
2019-05-20T09:17:57.762Z,61.85
2019-05-20T09:18:57.762Z,65.11
2019-05-20T09:19:57.741Z,63.95
2019-05-20T09:20:57.739Z,64.64
2019-05-20T09:21:57.728Z,63.85
2019-05-20T09:22:57.740Z,64.36
2019-05-20T09:23:57.706Z,60.69
2019-05-20T09:24:57.733Z,59.62
2019-05-20T09:25:57.679Z,62.37
2019-05-20T09:26:57.694Z,63.02
2019-05-20T09:27:57.677Z,62.66
2019-05-20T09:28:57.678Z,59.09
2019-05-20T09:29:57.679Z,58.20
2019-05-20T09:30:57.627Z,61.04
2019-05-20T09:31:57.664Z,61.37
2019-05-20T09:32:57.619Z,60.87
2019-05-20T09:33:57.599Z,61.10
2019-05-20T09:34:57.606Z,62.19
2019-05-20T09:35:57.577Z,64.42
2019-05-20T09:36:57.565Z,63.78
2019-05-20T09:37:57.586Z,65.11
2019-05-20T09:38:57.543Z,65.91
2019-05-20T09:39:57.535Z,63.58
2019-05-20T09:40:57.541Z,65.20
2019-05-20T09:41:57.546Z,66.90
2019-05-20T09:42:57.518Z,64.64
2019-05-20T09:43:57.497Z,61.93
2019-05-20T09:44:57.499Z,61.57
2019-05-20T09:46:07.462Z,60.14
2019-05-20T09:46:58.513Z,58.92
2019-05-20T09:47:57.462Z,61.04
2019-05-20T09:48:57.462Z,60.94
2019-05-20T09:49:57.444Z,60.91
2019-05-20T09:50:57.419Z,58.92
2019-05-20T09:51:57.410Z,58.13
2019-05-20T09:52:57.398Z,60.43
2019-05-20T09:53:57.437Z,61.00
2019-05-20T09:54:57.382Z,61.83
2019-05-20T09:55:57.375Z,62.65
2019-05-20T09:56:57.366Z,64.45
2019-05-20T09:57:57.352Z,62.45
2019-05-20T09:58:57.351Z,63.35
2019-05-20T09:59:57.349Z,63.02
2019-05-20T10:00:57.315Z,61.90
2019-05-20T10:01:57.311Z,61.80
2019-05-20T10:02:57.374Z,62.52
2019-05-20T10:03:57.325Z,63.12
2019-05-20T10:04:57.280Z,62.88
2019-05-20T10:05:57.283Z,62.95
2019-05-20T10:06:57.255Z,63.72
2019-05-20T10:07:57.266Z,61.83
2019-05-20T10:08:57.239Z,62.48
2019-05-20T10:09:57.242Z,64.64
2019-05-20T10:10:59.723Z,64.67
2019-05-20T10:11:57.230Z,66.37
2019-05-20T10:12:57.242Z,66.00
2019-05-20T10:13:57.186Z,64.78
2019-05-20T10:14:57.204Z,64.37
2019-05-20T10:15:57.190Z,63.81
2019-05-20T10:16:57.151Z,64.74
2019-05-20T10:17:57.150Z,66.86
2019-05-20T10:18:57.129Z,67.33
2019-05-20T10:19:57.159Z,64.51
2019-05-20T10:20:57.137Z,63.58
2019-05-20T10:21:57.099Z,66.87
2019-05-20T10:22:57.088Z,68.00
2019-05-20T10:23:57.094Z,65.90
2019-05-20T10:24:57.064Z,68.16
2019-05-20T10:25:57.052Z,68.19
2019-05-20T10:26:57.077Z,68.40
2019-05-20T10:27:57.847Z,67.72
2019-05-20T10:28:57.028Z,67.60
2019-05-20T10:29:57.027Z,67.72
2019-05-20T10:30:57.001Z,66.20
2019-05-20T10:31:56.993Z,66.43
2019-05-20T10:32:57.022Z,65.87
2019-05-20T10:33:56.970Z,66.70
2019-05-20T10:34:56.963Z,66.00
2019-05-20T10:35:56.953Z,68.70
2019-05-20T10:36:56.937Z,66.47
2019-05-20T10:37:56.931Z,65.70
2019-05-20T10:38:59.371Z,65.17
2019-05-20T10:39:56.906Z,63.78
2019-05-20T10:40:56.895Z,63.75
2019-05-20T10:41:56.883Z,61.85
2019-05-20T10:42:56.880Z,62.26
2019-05-20T10:43:56.860Z,63.42
2019-05-20T10:44:56.861Z,65.21
2019-05-20T10:45:56.835Z,62.79
2019-05-20T10:46:56.825Z,62.69
2019-05-20T10:47:56.816Z,62.82
2019-05-20T10:48:56.843Z,62.75
2019-05-20T10:49:56.792Z,63.95
2019-05-20T10:50:56.783Z,63.05
2019-05-20T10:51:56.771Z,65.05
2019-05-20T10:52:56.770Z,64.45
2019-05-20T10:53:56.762Z,65.67
2019-05-20T10:54:56.769Z,64.75
2019-05-20T10:55:57.211Z,62.65
2019-05-20T10:56:59.575Z,63.05
2019-05-20T10:57:56.712Z,63.02
2019-05-20T10:58:56.728Z,63.49
2019-05-20T10:59:56.697Z,63.29
2019-05-20T11:01:02.219Z,63.35
2019-05-20T11:01:57.665Z,62.85
2019-05-20T11:02:56.655Z,62.82
2019-05-20T11:03:56.657Z,61.80
2019-05-20T11:04:56.640Z,63.49
2019-05-20T11:05:56.614Z,63.05
2019-05-20T11:06:56.632Z,62.45
2019-05-20T11:07:56.803Z,62.82
2019-05-20T11:08:56.584Z,62.72
2019-05-20T11:09:56.575Z,62.29
2019-05-20T11:10:56.581Z,62.26
2019-05-20T11:11:56.548Z,60.63
2019-05-20T11:12:56.539Z,61.63
2019-05-20T11:13:56.536Z,63.92
2019-05-20T11:14:56.518Z,61.13
2019-05-20T11:15:56.508Z,62.05
2019-05-20T11:16:56.518Z,62.82
2019-05-20T11:17:56.483Z,63.55
2019-05-20T11:18:56.500Z,62.92
2019-05-20T11:19:56.493Z,62.65
2019-05-20T11:20:56.449Z,62.65
2019-05-20T11:21:56.695Z,61.93
2019-05-20T11:22:57.840Z,62.52
2019-05-20T11:23:56.415Z,61.99
2019-05-20T11:24:56.422Z,63.39
2019-05-20T11:25:56.430Z,63.09
2019-05-20T11:26:56.383Z,62.79
2019-05-20T11:27:56.378Z,61.90
2019-05-20T11:28:56.376Z,63.72
2019-05-20T11:29:56.352Z,62.82
2019-05-20T11:30:56.339Z,63.25
2019-05-20T11:31:56.383Z,60.24
2019-05-20T11:32:56.314Z,60.90
2019-05-20T11:33:57.661Z,57.89
2019-05-20T11:34:56.296Z,58.36
2019-05-20T11:35:56.281Z,59.09
2019-05-20T11:36:56.277Z,57.31
2019-05-20T11:37:56.270Z,56.49
2019-05-20T11:38:56.251Z,55.19
2019-05-20T11:39:56.249Z,55.40
2019-05-20T11:40:56.250Z,56.76
2019-05-20T11:41:56.217Z,55.76
2019-05-20T11:42:56.203Z,55.57
2019-05-20T11:43:56.243Z,52.47
2019-05-20T11:44:56.187Z,55.44
2019-05-20T11:45:56.171Z,55.10
2019-05-20T11:46:56.161Z,55.99
2019-05-20T11:47:56.150Z,57.90
2019-05-20T11:48:56.136Z,58.50
2019-05-20T11:49:56.145Z,60.26
2019-05-20T11:50:56.125Z,55.79
2019-05-20T11:51:56.108Z,55.40
2019-05-20T11:52:56.092Z,58.27
2019-05-20T11:53:56.084Z,56.78
2019-05-20T11:54:56.072Z,57.35
2019-05-20T11:55:56.078Z,56.56
2019-05-20T11:56:56.061Z,55.07
2019-05-20T11:57:56.047Z,53.19
2019-05-20T11:58:56.033Z,54.60
2019-05-20T11:59:56.027Z,55.49
2019-05-20T12:00:56.028Z,56.09
2019-05-20T12:01:55.997Z,54.50
2019-05-20T12:02:55.986Z,55.00
2019-05-20T12:03:55.980Z,52.96
2019-05-20T12:04:55.966Z,54.63
2019-05-20T12:05:55.990Z,55.62
2019-05-20T12:06:55.941Z,53.14
2019-05-20T12:07:55.934Z,55.36
2019-05-20T12:08:55.916Z,55.96
2019-05-20T12:09:55.922Z,51.28
2019-05-20T12:10:55.894Z,53.45
2019-05-20T12:11:55.901Z,55.54
2019-05-20T12:12:55.882Z,51.82
2019-05-20T12:13:55.864Z,52.49
2019-05-20T12:14:55.849Z,52.39
2019-05-20T12:15:55.882Z,53.11
2019-05-20T12:16:55.830Z,55.54
2019-05-20T12:17:55.816Z,53.75
2019-05-20T12:18:55.805Z,53.63
2019-05-20T12:19:55.796Z,54.32
2019-05-20T12:20:55.785Z,53.11
2019-05-20T12:21:55.799Z,54.05
2019-05-20T12:22:55.772Z,53.23
2019-05-20T12:23:55.753Z,53.11
2019-05-20T12:24:55.739Z,51.13
2019-05-20T12:25:55.730Z,53.35
2019-05-20T12:26:55.737Z,53.60
2019-05-20T12:27:55.723Z,53.48
2019-05-20T12:28:55.695Z,52.29
2019-05-20T12:29:55.687Z,52.69
2019-05-20T12:30:55.674Z,51.18
2019-05-20T12:31:55.681Z,51.67
2019-05-20T12:33:16.966Z,52.54
2019-05-20T12:33:56.652Z,51.35
2019-05-20T12:34:55.631Z,53.33
2019-05-20T12:35:55.624Z,51.60
2019-05-20T12:36:55.621Z,51.23
2019-05-20T12:37:55.596Z,51.82
2019-05-20T12:38:55.593Z,51.92
2019-05-20T12:40:06.669Z,55.34
2019-05-20T12:40:56.568Z,55.99
2019-05-20T12:41:55.610Z,55.94
2019-05-20T12:42:55.572Z,58.56
2019-05-20T12:44:11.034Z,56.37
2019-05-20T12:44:56.517Z,57.76
2019-05-20T12:45:55.516Z,57.89
2019-05-20T12:46:55.497Z,59.15
2019-05-20T12:47:55.494Z,57.26
2019-05-20T12:48:55.564Z,57.76
2019-05-20T12:49:55.468Z,58.95
2019-05-20T12:50:55.458Z,58.75
2019-05-20T12:51:55.471Z,58.39